Time;durP1;ratioP1;P1;durP2;ratioP2;P2;SDS_P1;SDS_P2;PMS_P1;PMS_P2;Temp;Humidity;BMP_temperature;BMP_pressure;BME280_temperature;BME280_humidity;BME280_pressure;Samples;Min_cycle;Max_cycle;Signal;HPM_P1;HPM_P2
2021/08/18 00:02:06;;;;;;;;;;;;;;;;;;5075583;28;20436;-71
2021/08/18 00:04:31;;;;;;;;;;;;;;;;;;5072808;28;19920;-71
2021/08/18 00:06:57;;;;;;;;;;;;;;;;;;5069628;28;19917;-71
2021/08/18 00:09:23;;;;;;;;;;;;;;;;;;5061081;28;20387;-70
2021/08/18 00:11:49;;;;;;;;;;;;;;;;;;5068390;28;19923;-70
2021/08/18 00:14:15;;;;;;;;;;;;;;;;;;5075902;28;20003;-71
2021/08/18 00:16:41;;;;;;;;;;;;;;;;;;5071651;28;19912;-70
2021/08/18 00:19:07;;;;;;;;;;;;;;;;;;5067611;28;20381;-71
2021/08/18 00:21:33;;;;;;;;;;;;;;;;;;5072530;28;19920;-71
2021/08/18 00:23:59;;;;;;;;;;;;;;;;;;5076283;28;19916;-70
2021/08/18 00:26:27;;;;;;;;;;;;;;;;;;5079918;28;20438;-70
2021/08/18 00:28:53;;;;;;;;;;;;;;;;;;5080362;28;20272;-71
2021/08/18 00:31:19;;;;;;;;;;;;;;;;;;5079008;28;19912;-70
2021/08/18 00:33:45;;;;;;;;;;;;;;;;;;5079390;28;19913;-71
2021/08/18 00:36:11;;;;;;;;;;;;;;;;;;5077249;28;19912;-71
2021/08/18 00:38:37;;;;;;;;;;;;;;;;;;5062702;28;25329;-61
2021/08/18 00:41:03;;;;;;;;;;;;;;;;;;5081352;28;20299;-61
2021/08/18 00:43:28;;;;;;;;;;;;;;;;;;5078987;28;19920;-61
2021/08/18 00:45:54;;;;;;;;;;;;;;;;;;5078710;28;20298;-61
2021/08/18 00:48:20;;;;;;;;;;;;;;;;;;5072860;28;20357;-63
2021/08/18 00:50:46;;;;;;;;;;;;;;;;;;5075207;28;19942;-61
2021/08/18 00:53:14;;;;;;;;;;;;;;;;;;5082521;28;19908;-61
2021/08/18 00:55:40;;;;;;;;;;;;;;;;;;5079145;28;19917;-61
2021/08/18 00:58:05;;;;;;;;;;;;;;;;;;5078206;28;20565;-61
2021/08/18 01:00:32;;;;;;;;;;;;;;;;;;5076091;28;19959;-61
2021/08/18 01:02:58;;;;;;;;;;;;;;;;;;5090671;28;19913;-61
2021/08/18 01:05:24;;;;;;;;;;;;;;;;;;5080025;28;19953;-61
2021/08/18 01:07:50;;;;;;;;;;;;;;;;;;5070519;28;20383;-61
2021/08/18 01:10:16;;;;;;;;;;;;;;;;;;5075200;28;19920;-61
2021/08/18 01:12:42;;;;;;;;;;;;;;;;;;5078276;28;20449;-61
2021/08/18 01:15:08;;;;;;;;;;;;;;;;;;5076937;28;20442;-61
2021/08/18 01:17:34;;;;;;;;;;;;;;;;;;5072097;28;20367;-61
2021/08/18 01:19:59;;;;;;;;;;;;;;;;;;5080032;28;19962;-61
2021/08/18 01:22:25;;;;;;;;;;;;;;;;;;5078656;28;19913;-61
2021/08/18 01:24:51;;;;;;;;;;;;;;;;;;5078475;28;19912;-61
2021/08/18 01:27:17;;;;;;;;;;;;;;;;;;5078513;28;19962;-61
2021/08/18 01:29:43;;;;;;;;;;;;;;;;;;5075190;28;19917;-61
2021/08/18 01:32:09;;;;;;;;;;;;;;;;;;5081308;28;19912;-61
2021/08/18 01:34:35;;;;;;;;;;;;;;;;;;5075347;28;20390;-61
2021/08/18 01:37:01;;;;;;;;;;;;;;;;;;5071956;28;19999;-61
2021/08/18 01:39:27;;;;;;;;;;;;;;;;;;5065891;28;19969;-61
2021/08/18 01:41:52;;;;;;;;;;;;;;;;;;5071717;28;20137;-61
2021/08/18 01:44:18;;;;;;;;;;;;;;;;;;5077355;28;20382;-61
2021/08/18 01:46:44;;;;;;;;;;;;;;;;;;5074252;28;19908;-61
2021/08/18 01:49:10;;;;;;;;;;;;;;;;;;5070232;28;20377;-61
2021/08/18 01:51:36;;;;;;;;;;;;;;;;;;5059876;28;19943;-61
2021/08/18 01:54:02;;;;;;;;;;;;;;;;;;5072191;28;19939;-61
2021/08/18 01:56:28;;;;;;;;;;;;;;;;;;5075607;28;19908;-61
2021/08/18 01:58:54;;;;;;;;;;;;;;;;;;5076320;28;19909;-61
2021/08/18 02:01:20;;;;;;;;;;;;;;;;;;5074902;28;19928;-61
2021/08/18 02:03:46;;;;;;;;;;;;;;;;;;5074452;28;20016;-61
2021/08/18 02:06:12;;;;;;;;;;;;;;;;;;5074198;28;19912;-61
2021/08/18 02:08:38;;;;;;;;;;;;;;;;;;5058034;28;19978;-61
2021/08/18 02:11:04;;;;;;;;;;;;;;;;;;5077208;28;19954;-61
2021/08/18 02:13:30;;;;;;;;;;;;;;;;;;5074838;28;19919;-61
2021/08/18 02:15:56;;;;;;;;;;;;;;;;;;5074216;28;19924;-61
2021/08/18 02:18:22;;;;;;;;;;;;;;;;;;5065158;28;19939;-61
2021/08/18 02:20:48;;;;;;;;;;;;;;;;;;5086206;28;19959;-61
2021/08/18 02:23:14;;;;;;;;;;;;;;;;;;5078459;28;20265;-61
2021/08/18 02:25:40;;;;;;;;;;;;;;;;;;5076434;28;19913;-61
2021/08/18 02:28:05;;;;;;;;;;;;;;;;;;5073740;28;19917;-61
2021/08/18 02:30:31;;;;;;;;;;;;;;;;;;5074318;28;19991;-61
2021/08/18 02:32:57;;;;;;;;;;;;;;;;;;5071033;28;20403;-61
2021/08/18 02:35:23;;;;;;;;;;;;;;;;;;5075866;28;19912;-61
2021/08/18 02:37:49;;;;;;;;;;;;;;;;;;5064848;28;20391;-61
2021/08/18 02:40:20;;;;;;;;;;;;;;;;;;5069922;28;20007;-61
2021/08/18 02:42:45;;;;;;;;;;;;;;;;;;5074253;28;19912;-61
2021/08/18 02:45:11;;;;;;;;;;;;;;;;;;5072066;28;19920;-61
2021/08/18 02:47:37;;;;;;;;;;;;;;;;;;5065570;28;20025;-61
2021/08/18 02:50:03;;;;;;;;;;;;;;;;;;5076231;28;19916;-61
2021/08/18 02:52:29;;;;;;;;;;;;;;;;;;5073722;28;20387;-61
2021/08/18 02:54:55;;;;;;;;;;;;;;;;;;5074046;28;19912;-61
2021/08/18 02:57:21;;;;;;;;;;;;;;;;;;5073688;28;20078;-61
2021/08/18 02:59:47;;;;;;;;;;;;;;;;;;5069822;28;19920;-61
2021/08/18 03:02:13;;;;;;;;;;;;;;;;;;5083390;28;19912;-61
2021/08/18 03:04:39;;;;;;;;;;;;;;;;;;5074278;28;19938;-61
2021/08/18 03:07:05;;;;;;;;;;;;;;;;;;5069491;28;20363;-61
2021/08/18 03:09:31;;;;;;;;;;;;;;;;;;5063845;28;19908;-61
2021/08/18 03:11:57;;;;;;;;;;;;;;;;;;5069863;28;19916;-61
2021/08/18 03:14:23;;;;;;;;;;;;;;;;;;5074418;28;19920;-61
2021/08/18 03:16:48;;;;;;;;;;;;;;;;;;5072454;28;19975;-61
2021/08/18 03:19:14;;;;;;;;;;;;;;;;;;5069333;28;20375;-61
2021/08/18 03:21:40;;;;;;;;;;;;;;;;;;5073144;28;19928;-61
2021/08/18 03:24:06;;;;;;;;;;;;;;;;;;5070878;28;19913;-61
2021/08/18 03:26:32;;;;;;;;;;;;;;;;;;5073296;28;19934;-61
2021/08/18 03:28:58;;;;;;;;;;;;;;;;;;5074556;28;20399;-61
2021/08/18 03:31:24;;;;;;;;;;;;;;;;;;5073058;28;19955;-61
2021/08/18 03:33:50;;;;;;;;;;;;;;;;;;5073339;28;19912;-61
2021/08/18 03:36:15;;;;;;;;;;;;;;;;;;5071705;28;19912;-61
2021/08/18 03:38:41;;;;;;;;;;;;;;;;;;5055915;28;19912;-61
2021/08/18 03:41:07;;;;;;;;;;;;;;;;;;5075539;28;19924;-61
2021/08/18 03:43:33;;;;;;;;;;;;;;;;;;5073264;28;19912;-61
2021/08/18 03:45:59;;;;;;;;;;;;;;;;;;5072364;28;19923;-61
2021/08/18 03:48:25;;;;;;;;;;;;;;;;;;5066582;28;20349;-60
2021/08/18 03:50:51;;;;;;;;;;;;;;;;;;5068869;28;19920;-59
2021/08/18 03:53:17;;;;;;;;;;;;;;;;;;5076126;28;20431;-60
2021/08/18 03:55:43;;;;;;;;;;;;;;;;;;5072910;28;19961;-60
2021/08/18 03:58:08;;;;;;;;;;;;;;;;;;5067508;28;19999;-60
2021/08/18 04:00:35;;;;;;;;;;;;;;;;;;5069976;28;19934;-60
2021/08/18 04:03:01;;;;;;;;;;;;;;;;;;5052980;28;19913;-60
2021/08/18 04:05:27;;;;;;;;;;;;;;;;;;5069977;28;20394;-60
2021/08/18 04:07:52;;;;;;;;;;;;;;;;;;5069104;28;19909;-59
2021/08/18 04:10:18;;;;;;;;;;;;;;;;;;5069813;28;20395;-60
2021/08/18 04:12:44;;;;;;;;;;;;;;;;;;5069532;28;19920;-60
2021/08/18 04:15:10;;;;;;;;;;;;;;;;;;5069618;28;20003;-60
2021/08/18 04:17:36;;;;;;;;;;;;;;;;;;5067602;28;20311;-60
2021/08/18 04:20:02;;;;;;;;;;;;;;;;;;5070638;28;19980;-60
2021/08/18 04:22:28;;;;;;;;;;;;;;;;;;5070874;28;20012;-60
2021/08/18 04:24:53;;;;;;;;;;;;;;;;;;5071351;28;19999;-60
2021/08/18 04:27:19;;;;;;;;;;;;;;;;;;5071045;28;19922;-59
2021/08/18 04:29:45;;;;;;;;;;;;;;;;;;5066786;28;19916;-60
2021/08/18 04:32:11;;;;;;;;;;;;;;;;;;5073942;28;19955;-60
2021/08/18 04:34:37;;;;;;;;;;;;;;;;;;5056300;28;19962;-60
2021/08/18 04:37:03;;;;;;;;;;;;;;;;;;5067355;28;19959;-60
2021/08/18 04:39:29;;;;;;;;;;;;;;;;;;5059605;28;19916;-60
2021/08/18 04:41:55;;;;;;;;;;;;;;;;;;5066842;28;20366;-60
2021/08/18 04:44:20;;;;;;;;;;;;;;;;;;5072112;28;19932;-60
2021/08/18 04:46:46;;;;;;;;;;;;;;;;;;5069224;28;20007;-60
2021/08/18 04:49:12;;;;;;;;;;;;;;;;;;5066283;28;19912;-60
2021/08/18 04:51:38;;;;;;;;;;;;;;;;;;5070181;28;19927;-60
2021/08/18 04:54:04;;;;;;;;;;;;;;;;;;5069402;28;19916;-60
2021/08/18 04:56:30;;;;;;;;;;;;;;;;;;5072723;28;19915;-60
2021/08/18 04:58:56;;;;;;;;;;;;;;;;;;5072626;28;19922;-60
2021/08/18 05:01:22;;;;;;;;;;;;;;;;;;5072386;28;19928;-60
2021/08/18 05:03:47;;;;;;;;;;;;;;;;;;5070907;28;20017;-60
2021/08/18 05:06:13;;;;;;;;;;;;;;;;;;5071392;28;19924;-60
2021/08/18 05:08:39;;;;;;;;;;;;;;;;;;5055703;28;20379;-60
2021/08/18 05:11:05;;;;;;;;;;;;;;;;;;5079698;28;20015;-60
2021/08/18 05:13:31;;;;;;;;;;;;;;;;;;5075649;28;19913;-61
2021/08/18 05:15:57;;;;;;;;;;;;;;;;;;5075444;28;19921;-60
2021/08/18 05:18:23;;;;;;;;;;;;;;;;;;5069492;28;19998;-60
2021/08/18 05:20:48;;;;;;;;;;;;;;;;;;5070925;28;20454;-60
2021/08/18 05:23:14;;;;;;;;;;;;;;;;;;5079178;28;19915;-60
2021/08/18 05:25:40;;;;;;;;;;;;;;;;;;5075836;28;20376;-60
2021/08/18 05:28:08;;;;;;;;;;;;;;;;;;5058429;28;19916;-60
2021/08/18 05:30:34;;;;;;;;;;;;;;;;;;5074446;28;20447;-60
2021/08/18 05:33:00;;;;;;;;;;;;;;;;;;5072228;28;19995;-60
2021/08/18 05:35:26;;;;;;;;;;;;;;;;;;5076075;28;20283;-60
2021/08/18 05:37:51;;;;;;;;;;;;;;;;;;5066073;28;19909;-61
2021/08/18 05:40:17;;;;;;;;;;;;;;;;;;5071796;28;19928;-61
2021/08/18 05:42:43;;;;;;;;;;;;;;;;;;5075113;28;19942;-61
2021/08/18 05:45:09;;;;;;;;;;;;;;;;;;5073632;28;20003;-61
2021/08/18 05:47:35;;;;;;;;;;;;;;;;;;5067708;28;19908;-61
2021/08/18 05:50:01;;;;;;;;;;;;;;;;;;5078383;28;20536;-61
2021/08/18 05:52:27;;;;;;;;;;;;;;;;;;5075228;28;19912;-62
2021/08/18 05:54:53;;;;;;;;;;;;;;;;;;5074376;28;20376;-61
2021/08/18 05:57:19;;;;;;;;;;;;;;;;;;5072582;28;19912;-61
2021/08/18 05:59:44;;;;;;;;;;;;;;;;;;5088347;28;19920;-61
2021/08/18 06:02:10;;;;;;;;;;;;;;;;;;5078839;28;19908;-61
2021/08/18 06:04:36;;;;;;;;;;;;;;;;;;5074914;28;19932;-61
2021/08/18 06:07:02;;;;;;;;;;;;;;;;;;5070769;28;19913;-61
2021/08/18 06:09:29;;;;;;;;;;;;;;;;;;5064580;28;20362;-60
2021/08/18 06:11:55;;;;;;;;;;;;;;;;;;5070765;28;19913;-61
2021/08/18 06:14:21;;;;;;;;;;;;;;;;;;5076509;28;19927;-61
2021/08/18 06:16:47;;;;;;;;;;;;;;;;;;5073477;28;19944;-61
2021/08/18 06:19:13;;;;;;;;;;;;;;;;;;5070235;28;19931;-61
2021/08/18 06:21:38;;;;;;;;;;;;;;;;;;5074363;28;19924;-61
2021/08/18 06:24:17;;;;;;;;;;;;;;;;;;5072195;28;19920;-61
2021/08/18 06:26:43;;;;;;;;;;;;;;;;;;5072077;28;19920;-61
2021/08/18 06:29:09;;;;;;;;;;;;;;;;;;5088903;28;19908;-61
2021/08/18 06:31:35;;;;;;;;;;;;;;;;;;5075252;28;19908;-61
2021/08/18 06:34:01;;;;;;;;;;;;;;;;;;5074369;28;19912;-61
2021/08/18 06:36:27;;;;;;;;;;;;;;;;;;5074233;28;19973;-61
2021/08/18 06:38:52;;;;;;;;;;;;;;;;;;5070312;28;19928;-61
2021/08/18 06:41:18;;;;;;;;;;;;;;;;;;5076827;28;20295;-61
2021/08/18 06:43:44;;;;;;;;;;;;;;;;;;5076223;28;20007;-60
2021/08/18 06:46:10;;;;;;;;;;;;;;;;;;5073842;28;20278;-60
2021/08/18 06:48:36;;;;;;;;;;;;;;;;;;5074137;28;20002;-61
2021/08/18 06:51:02;;;;;;;;;;;;;;;;;;5071103;28;19909;-60
2021/08/18 06:53:28;;;;;;;;;;;;;;;;;;5074629;28;19912;-61
2021/08/18 06:55:54;;;;;;;;;;;;;;;;;;5074879;28;19958;-60
2021/08/18 06:58:19;;;;;;;;;;;;;;;;;;5073694;28;20283;-61
2021/08/18 07:00:45;;;;;;;;;;;;;;;;;;5074008;28;19925;-61
2021/08/18 07:03:11;;;;;;;;;;;;;;;;;;5072311;28;19963;-61
2021/08/18 07:05:37;;;;;;;;;;;;;;;;;;5071602;28;19913;-61
2021/08/18 07:08:03;;;;;;;;;;;;;;;;;;5075629;28;19919;-61
2021/08/18 07:10:29;;;;;;;;;;;;;;;;;;5073884;28;19912;-61
2021/08/18 07:12:55;;;;;;;;;;;;;;;;;;5073546;28;19935;-62
2021/08/18 07:15:21;;;;;;;;;;;;;;;;;;5073057;28;19920;-61
2021/08/18 07:17:47;;;;;;;;;;;;;;;;;;5069385;28;19917;-62
2021/08/18 07:20:12;;;;;;;;;;;;;;;;;;5076639;28;19948;-61
2021/08/18 07:22:38;;;;;;;;;;;;;;;;;;5073258;28;19917;-61
2021/08/18 07:25:04;;;;;;;;;;;;;;;;;;5073219;28;19916;-61
2021/08/18 07:27:30;;;;;;;;;;;;;;;;;;5072260;28;20387;-61
2021/08/18 07:29:57;;;;;;;;;;;;;;;;;;5083965;28;19924;-61
2021/08/18 07:32:22;;;;;;;;;;;;;;;;;;5074642;28;19962;-61
2021/08/18 07:34:48;;;;;;;;;;;;;;;;;;5074168;28;19945;-61
2021/08/18 07:37:16;;;;;;;;;;;;;;;;;;5072874;28;19974;-61
2021/08/18 07:39:42;;;;;;;;;;;;;;;;;;5073241;28;19919;-61
2021/08/18 07:42:08;;;;;;;;;;;;;;;;;;5070972;28;19913;-61
2021/08/18 07:44:34;;;;;;;;;;;;;;;;;;5072429;28;19909;-61
2021/08/18 07:47:00;;;;;;;;;;;;;;;;;;5073036;28;19952;-61
2021/08/18 07:49:26;;;;;;;;;;;;;;;;;;5070836;28;19928;-61
2021/08/18 07:51:52;;;;;;;;;;;;;;;;;;5072778;28;20344;-61
2021/08/18 07:54:18;;;;;;;;;;;;;;;;;;5072640;28;19912;-62
2021/08/18 07:56:43;;;;;;;;;;;;;;;;;;5070153;28;19913;-61
2021/08/18 07:59:09;;;;;;;;;;;;;;;;;;5087265;28;19912;-61
2021/08/18 08:01:35;;;;;;;;;;;;;;;;;;5079511;28;19919;-61
2021/08/18 08:04:01;;;;;;;;;;;;;;;;;;5077738;28;19912;-61
2021/08/18 08:06:27;;;;;;;;;;;;;;;;;;5072231;28;19920;-61
2021/08/18 08:08:53;;;;;;;;;;;;;;;;;;5068469;28;20094;-61
2021/08/18 08:11:19;;;;;;;;;;;;;;;;;;5075442;28;19943;-61
2021/08/18 08:13:45;;;;;;;;;;;;;;;;;;5074863;28;19908;-61
2021/08/18 08:16:11;;;;;;;;;;;;;;;;;;5072107;28;20402;-61
2021/08/18 08:18:37;;;;;;;;;;;;;;;;;;5072477;28;19951;-61
2021/08/18 08:21:02;;;;;;;;;;;;;;;;;;5070032;28;19952;-60
2021/08/18 08:23:28;;;;;;;;;;;;;;;;;;5073077;28;19909;-61
2021/08/18 08:25:54;;;;;;;;;;;;;;;;;;5073721;28;20252;-61
2021/08/18 08:28:20;;;;;;;;;;;;;;;;;;5077616;28;19912;-61
2021/08/18 08:30:48;;;;;;;;;;;;;;;;;;5080592;28;20407;-61
2021/08/18 08:33:14;;;;;;;;;;;;;;;;;;5071960;28;19941;-61
2021/08/18 08:35:40;;;;;;;;;;;;;;;;;;5069723;28;19916;-61
2021/08/18 08:38:06;;;;;;;;;;;;;;;;;;5074780;28;19935;-61
2021/08/18 08:40:32;;;;;;;;;;;;;;;;;;5072364;28;19970;-69
2021/08/18 08:42:58;;;;;;;;;;;;;;;;;;5073828;28;20352;-69
2021/08/18 08:45:24;;;;;;;;;;;;;;;;;;5076598;28;19912;-69
2021/08/18 08:47:50;;;;;;;;;;;;;;;;;;5071347;28;20392;-68
2021/08/18 08:50:15;;;;;;;;;;;;;;;;;;5079661;28;19908;-68
2021/08/18 08:52:41;;;;;;;;;;;;;;;;;;5076263;28;19912;-68
2021/08/18 08:55:07;;;;;;;;;;;;;;;;;;5076114;28;19934;-68
2021/08/18 08:57:33;;;;;;;;;;;;;;;;;;5075385;28;19912;-68
2021/08/18 08:59:59;;;;;;;;;;;;;;;;;;5087402;28;19932;-68
2021/08/18 09:02:25;;;;;;;;;;;;;;;;;;5077027;28;19909;-69
2021/08/18 09:04:51;;;;;;;;;;;;;;;;;;5077346;28;20398;-68
2021/08/18 09:07:17;;;;;;;;;;;;;;;;;;5075592;28;19917;-68
2021/08/18 09:09:43;;;;;;;;;;;;;;;;;;5076195;28;20328;-68
2021/08/18 09:12:09;;;;;;;;;;;;;;;;;;5074126;28;19920;-68
2021/08/18 09:14:35;;;;;;;;;;;;;;;;;;5075020;28;19920;-68
2021/08/18 09:17:01;;;;;;;;;;;;;;;;;;5093028;28;19912;-68
2021/08/18 09:19:27;;;;;;;;;;;;;;;;;;5074087;28;19908;-68
2021/08/18 09:21:53;;;;;;;;;;;;;;;;;;5075785;28;20031;-68
2021/08/18 09:24:19;;;;;;;;;;;;;;;;;;5075376;28;20388;-68
2021/08/18 09:26:48;;;;;;;;;;;;;;;;;;5072579;28;20295;-68
2021/08/18 09:29:14;;;;;;;;;;;;;;;;;;5086315;28;20501;-68
2021/08/18 09:31:40;;;;;;;;;;;;;;;;;;5076276;28;19908;-68
2021/08/18 09:34:06;;;;;;;;;;;;;;;;;;5074959;28;19920;-67
2021/08/18 09:36:33;;;;;;;;;;;;;;;;;;5075758;28;19912;-67
2021/08/18 09:38:59;;;;;;;;;;;;;;;;;;5071885;28;19920;-67
2021/08/18 09:41:24;;;;;;;;;;;;;;;;;;5076619;28;19917;-67
2021/08/18 09:43:50;;;;;;;;;;;;;;;;;;5077979;28;20043;-67
2021/08/18 09:46:16;;;;;;;;;;;;;;;;;;5075256;28;19908;-67
2021/08/18 09:48:44;;;;;;;;;;;;;;;;;;5074680;28;19912;-67
2021/08/18 09:51:10;;;;;;;;;;;;;;;;;;5074008;28;19939;-67
2021/08/18 09:53:37;;;;;;;;;;;;;;;;;;5074111;28;19919;-67
2021/08/18 09:56:03;;;;;;;;;;;;;;;;;;5076600;28;19966;-67
2021/08/18 09:58:29;;;;;;;;;;;;;;;;;;5081309;28;19908;-67
2021/08/18 10:00:54;;;;;;;;;;;;;;;;;;5077172;28;20579;-68
2021/08/18 10:03:21;;;;;;;;;;;;;;;;;;5074738;28;19934;-67
2021/08/18 10:05:48;;;;;;;;;;;;;;;;;;5054568;28;19920;-66
2021/08/18 10:08:14;;;;;;;;;;;;;;;;;;5071568;28;19930;-66
2021/08/18 10:10:40;;;;;;;;;;;;;;;;;;5075066;28;20367;-66
2021/08/18 10:13:06;;;;;;;;;;;;;;;;;;5074754;28;19965;-66
2021/08/18 10:15:33;;;;;;;;;;;;;;;;;;5074890;28;19927;-67
2021/08/18 10:17:58;;;;;;;;;;;;;;;;;;5071154;28;19920;-66
2021/08/18 10:20:24;;;;;;;;;;;;;;;;;;5075193;28;19936;-66
2021/08/18 10:22:50;;;;;;;;;;;;;;;;;;5077112;28;19909;-66
2021/08/18 10:25:16;;;;;;;;;;;;;;;;;;5074697;28;19965;-66
2021/08/18 10:27:42;;;;;;;;;;;;;;;;;;5074269;28;19916;-66
2021/08/18 10:30:08;;;;;;;;;;;;;;;;;;5086129;28;20388;-66
2021/08/18 10:32:34;;;;;;;;;;;;;;;;;;5073955;28;19908;-66
2021/08/18 10:35:00;;;;;;;;;;;;;;;;;;5075529;28;19923;-66
2021/08/18 10:37:26;;;;;;;;;;;;;;;;;;5074378;28;19960;-67
2021/08/18 10:39:52;;;;;;;;;;;;;;;;;;5070804;28;19971;-66
2021/08/18 10:42:18;;;;;;;;;;;;;;;;;;5074084;28;19916;-66
2021/08/18 10:44:44;;;;;;;;;;;;;;;;;;5071933;28;20261;-68
2021/08/18 10:47:09;;;;;;;;;;;;;;;;;;5083612;28;19998;-66
2021/08/18 10:49:35;;;;;;;;;;;;;;;;;;5073606;28;20430;-66
2021/08/18 10:52:01;;;;;;;;;;;;;;;;;;5073947;28;19916;-66
2021/08/18 10:54:27;;;;;;;;;;;;;;;;;;5073781;28;19919;-67
2021/08/18 10:56:57;;;;;;;;;;;;;;;;;;5071417;28;19952;-66
2021/08/18 10:59:23;;;;;;;;;;;;;;;;;;5088090;28;19912;-68
2021/08/18 11:01:49;;;;;;;;;;;;;;;;;;5074568;28;19953;-66
2021/08/18 11:04:15;;;;;;;;;;;;;;;;;;5073746;28;20333;-66
2021/08/18 11:06:41;;;;;;;;;;;;;;;;;;5072267;28;19912;-66
2021/08/18 11:09:07;;;;;;;;;;;;;;;;;;5071522;28;20448;-66
2021/08/18 11:11:33;;;;;;;;;;;;;;;;;;5072995;28;19908;-66
2021/08/18 11:13:58;;;;;;;;;;;;;;;;;;5076069;28;19908;-66
2021/08/18 11:16:25;;;;;;;;;;;;;;;;;;5073282;28;20266;-67
2021/08/18 11:18:51;;;;;;;;;;;;;;;;;;5069867;28;20400;-66
2021/08/18 11:21:17;;;;;;;;;;;;;;;;;;5072378;28;19928;-68
2021/08/18 11:23:43;;;;;;;;;;;;;;;;;;5070107;28;20047;-68
2021/08/18 11:26:09;;;;;;;;;;;;;;;;;;5075995;28;19916;-66
2021/08/18 11:28:36;;;;;;;;;;;;;;;;;;5080457;28;19943;-66
2021/08/18 11:31:02;;;;;;;;;;;;;;;;;;5078265;28;19919;-66
2021/08/18 11:33:28;;;;;;;;;;;;;;;;;;5073183;28;19912;-66
2021/08/18 11:35:54;;;;;;;;;;;;;;;;;;5069279;28;19925;-67
2021/08/18 11:38:20;;;;;;;;;;;;;;;;;;5075644;28;19920;-66
2021/08/18 11:40:47;;;;;;;;;;;;;;;;;;5072908;28;19916;-66
2021/08/18 11:43:13;;;;;;;;;;;;;;;;;;5072711;28;19912;-68
2021/08/18 11:45:39;;;;;;;;;;;;;;;;;;5073016;28;19995;-67
2021/08/18 11:48:05;;;;;;;;;;;;;;;;;;5070751;28;19913;-68
2021/08/18 11:50:31;;;;;;;;;;;;;;;;;;5073111;28;19908;-68
2021/08/18 11:52:57;;;;;;;;;;;;;;;;;;5073881;28;19909;-68
2021/08/18 11:55:22;;;;;;;;;;;;;;;;;;5072563;28;20272;-69
2021/08/18 11:57:48;;;;;;;;;;;;;;;;;;5069949;28;19912;-67
2021/08/18 12:00:14;;;;;;;;;;;;;;;;;;5069390;28;20051;-67
2021/08/18 12:02:40;;;;;;;;;;;;;;;;;;5071972;28;19924;-66
2021/08/18 12:05:08;;;;;;;;;;;;;;;;;;5073447;28;19909;-67
2021/08/18 12:07:36;;;;;;;;;;;;;;;;;;5070201;28;19916;-67
2021/08/18 12:10:01;;;;;;;;;;;;;;;;;;5072023;28;19920;-67
2021/08/18 12:12:27;;;;;;;;;;;;;;;;;;5069299;28;20318;-67
2021/08/18 12:14:54;;;;;;;;;;;;;;;;;;5069415;28;20008;-68
2021/08/18 12:17:20;;;;;;;;;;;;;;;;;;5073006;28;19917;-68
2021/08/18 12:19:46;;;;;;;;;;;;;;;;;;5071956;28;19954;-67
2021/08/18 12:22:13;;;;;;;;;;;;;;;;;;5069620;28;19935;-67
2021/08/18 12:24:39;;;;;;;;;;;;;;;;;;5071728;28;19928;-68
2021/08/18 12:27:05;;;;;;;;;;;;;;;;;;5070558;28;19917;-68
2021/08/18 12:29:31;;;;;;;;;;;;;;;;;;5069564;28;19912;-68
2021/08/18 12:31:57;;;;;;;;;;;;;;;;;;5088936;28;19912;-68
2021/08/18 12:34:23;;;;;;;;;;;;;;;;;;5072028;28;19916;-68
2021/08/18 12:36:49;;;;;;;;;;;;;;;;;;5071383;28;20038;-68
2021/08/18 12:39:15;;;;;;;;;;;;;;;;;;5069433;28;19908;-68
2021/08/18 12:41:41;;;;;;;;;;;;;;;;;;5071079;28;19956;-68
2021/08/18 12:44:07;;;;;;;;;;;;;;;;;;5074040;28;19912;-68
2021/08/18 12:46:33;;;;;;;;;;;;;;;;;;5072533;28;19931;-68
2021/08/18 12:48:59;;;;;;;;;;;;;;;;;;5071928;28;19912;-68
2021/08/18 12:51:25;;;;;;;;;;;;;;;;;;5072484;28;19915;-68
2021/08/18 12:53:50;;;;;;;;;;;;;;;;;;5067925;28;19913;-68
2021/08/18 12:56:16;;;;;;;;;;;;;;;;;;5075583;28;19912;-68
2021/08/18 12:58:42;;;;;;;;;;;;;;;;;;5080398;28;20363;-68
2021/08/18 13:01:08;;;;;;;;;;;;;;;;;;5076874;28;20062;-68
2021/08/18 13:03:35;;;;;;;;;;;;;;;;;;5072550;28;19908;-68
2021/08/18 13:06:01;;;;;;;;;;;;;;;;;;5069178;28;20356;-68
2021/08/18 13:08:26;;;;;;;;;;;;;;;;;;5072130;28;19909;-68
2021/08/18 13:10:52;;;;;;;;;;;;;;;;;;5072491;28;19912;-68
2021/08/18 13:13:18;;;;;;;;;;;;;;;;;;5071146;28;19916;-68
2021/08/18 13:15:44;;;;;;;;;;;;;;;;;;5072360;28;20345;-68
2021/08/18 13:18:10;;;;;;;;;;;;;;;;;;5077399;28;19935;-68
2021/08/18 13:20:36;;;;;;;;;;;;;;;;;;5070346;28;20391;-68
2021/08/18 13:23:02;;;;;;;;;;;;;;;;;;5073533;28;19908;-68
2021/08/18 13:25:27;;;;;;;;;;;;;;;;;;5071711;28;19999;-68
2021/08/18 13:27:53;;;;;;;;;;;;;;;;;;5073680;28;19978;-68
2021/08/18 13:30:23;;;;;;;;;;;;;;;;;;5085145;28;19916;-68
2021/08/18 13:32:49;;;;;;;;;;;;;;;;;;5055544;28;19935;-68
2021/08/18 13:35:15;;;;;;;;;;;;;;;;;;5078584;28;20467;-68
2021/08/18 13:37:41;;;;;;;;;;;;;;;;;;5075292;28;19955;-68
2021/08/18 13:40:07;;;;;;;;;;;;;;;;;;5075267;28;19964;-68
2021/08/18 13:42:33;;;;;;;;;;;;;;;;;;5075123;28;20341;-66
2021/08/18 13:44:58;;;;;;;;;;;;;;;;;;5071352;28;19912;-66
2021/08/18 13:47:24;;;;;;;;;;;;;;;;;;5076672;28;19908;-66
2021/08/18 13:49:50;;;;;;;;;;;;;;;;;;5078562;28;19940;-66
2021/08/18 13:52:16;;;;;;;;;;;;;;;;;;5074827;28;20350;-67
2021/08/18 13:54:42;;;;;;;;;;;;;;;;;;5059904;28;19920;-66
2021/08/18 13:57:08;;;;;;;;;;;;;;;;;;5072584;28;19912;-66
2021/08/18 13:59:34;;;;;;;;;;;;;;;;;;5089128;28;19908;-67
2021/08/18 14:02:00;;;;;;;;;;;;;;;;;;5076529;28;20402;-66
2021/08/18 14:04:25;;;;;;;;;;;;;;;;;;5080043;28;19938;-66
2021/08/18 14:06:51;;;;;;;;;;;;;;;;;;5081955;28;19912;-67
2021/08/18 14:09:17;;;;;;;;;;;;;;;;;;5059140;28;19912;-66
2021/08/18 14:11:44;;;;;;;;;;;;;;;;;;5071567;28;19959;-67
2021/08/18 14:14:10;;;;;;;;;;;;;;;;;;5077705;28;19912;-67
2021/08/18 14:16:35;;;;;;;;;;;;;;;;;;5074923;28;19970;-66
2021/08/18 14:19:01;;;;;;;;;;;;;;;;;;5074701;28;19913;-67
2021/08/18 14:21:27;;;;;;;;;;;;;;;;;;5075135;28;19920;-67
2021/08/18 14:23:53;;;;;;;;;;;;;;;;;;5070543;28;20399;-67
2021/08/18 14:26:19;;;;;;;;;;;;;;;;;;5076878;28;19908;-67
2021/08/18 14:28:45;;;;;;;;;;;;;;;;;;5083515;28;19908;-67
2021/08/18 14:31:11;;;;;;;;;;;;;;;;;;5079445;28;20003;-67
2021/08/18 14:33:37;;;;;;;;;;;;;;;;;;5074528;28;19912;-67
2021/08/18 14:36:03;;;;;;;;;;;;;;;;;;5072165;28;20010;-67
2021/08/18 14:38:29;;;;;;;;;;;;;;;;;;5073903;28;19950;-67
2021/08/18 14:40:55;;;;;;;;;;;;;;;;;;5075397;28;19961;-67
2021/08/18 14:43:21;;;;;;;;;;;;;;;;;;5074292;28;20013;-67
2021/08/18 14:45:46;;;;;;;;;;;;;;;;;;5074394;28;19921;-67
2021/08/18 14:48:12;;;;;;;;;;;;;;;;;;5072510;28;19919;-67
2021/08/18 14:50:38;;;;;;;;;;;;;;;;;;5072616;28;19913;-67
2021/08/18 14:53:04;;;;;;;;;;;;;;;;;;5075550;28;20478;-67
2021/08/18 14:55:30;;;;;;;;;;;;;;;;;;5074110;28;19923;-67
2021/08/18 14:57:56;;;;;;;;;;;;;;;;;;5076000;28;19957;-67
2021/08/18 15:00:22;;;;;;;;;;;;;;;;;;5085525;28;20006;-67
2021/08/18 15:02:48;;;;;;;;;;;;;;;;;;5069406;28;20347;-67
2021/08/18 15:05:14;;;;;;;;;;;;;;;;;;5077450;28;20291;-67
2021/08/18 15:07:40;;;;;;;;;;;;;;;;;;5072957;28;19916;-67
2021/08/18 15:10:06;;;;;;;;;;;;;;;;;;5073765;28;20380;-67
2021/08/18 15:12:32;;;;;;;;;;;;;;;;;;5073563;28;19919;-67
2021/08/18 15:14:57;;;;;;;;;;;;;;;;;;5070134;28;19956;-67
2021/08/18 15:17:23;;;;;;;;;;;;;;;;;;5055811;28;20283;-67
2021/08/18 15:19:49;;;;;;;;;;;;;;;;;;5089651;28;19970;-67
2021/08/18 15:22:15;;;;;;;;;;;;;;;;;;5071159;28;19912;-67
2021/08/18 15:24:41;;;;;;;;;;;;;;;;;;5073151;28;19999;-67
2021/08/18 15:27:07;;;;;;;;;;;;;;;;;;5070850;28;19913;-67
2021/08/18 15:29:33;;;;;;;;;;;;;;;;;;5085296;28;20398;-67
2021/08/18 15:31:59;;;;;;;;;;;;;;;;;;5074097;28;19940;-67
2021/08/18 15:34:25;;;;;;;;;;;;;;;;;;5073078;28;19930;-67
2021/08/18 15:36:51;;;;;;;;;;;;;;;;;;5072574;28;19920;-67
2021/08/18 15:39:17;;;;;;;;;;;;;;;;;;5072491;28;19959;-67
2021/08/18 15:41:43;;;;;;;;;;;;;;;;;;5070286;28;19928;-67
2021/08/18 15:44:09;;;;;;;;;;;;;;;;;;5075484;28;19913;-67
2021/08/18 15:46:35;;;;;;;;;;;;;;;;;;5072667;28;19963;-67
2021/08/18 15:49:01;;;;;;;;;;;;;;;;;;5073009;28;19939;-67
2021/08/18 15:51:26;;;;;;;;;;;;;;;;;;5072706;28;19923;-67
2021/08/18 15:53:52;;;;;;;;;;;;;;;;;;5068107;28;19912;-67
2021/08/18 15:56:18;;;;;;;;;;;;;;;;;;5076274;28;19941;-67
2021/08/18 15:58:44;;;;;;;;;;;;;;;;;;5074445;28;19935;-67
2021/08/18 16:01:10;;;;;;;;;;;;;;;;;;5072653;28;19983;-67
2021/08/18 16:03:37;;;;;;;;;;;;;;;;;;5071500;28;19919;-67
2021/08/18 16:06:03;;;;;;;;;;;;;;;;;;5069776;28;19920;-67
2021/08/18 16:08:29;;;;;;;;;;;;;;;;;;5072594;28;19909;-66
2021/08/18 16:10:55;;;;;;;;;;;;;;;;;;5070745;28;19932;-67
2021/08/18 16:13:20;;;;;;;;;;;;;;;;;;5071969;28;19942;-67
2021/08/18 16:15:47;;;;;;;;;;;;;;;;;;5072104;28;20410;-67
2021/08/18 16:18:12;;;;;;;;;;;;;;;;;;5069187;28;19913;-67
2021/08/18 16:20:38;;;;;;;;;;;;;;;;;;5072330;28;19927;-67
2021/08/18 16:23:04;;;;;;;;;;;;;;;;;;5074750;28;19912;-69
2021/08/18 16:25:30;;;;;;;;;;;;;;;;;;5070213;28;20011;-69
2021/08/18 16:27:56;;;;;;;;;;;;;;;;;;5070659;28;19979;-69
2021/08/18 16:30:22;;;;;;;;;;;;;;;;;;5069104;28;19999;-69
2021/08/18 16:32:48;;;;;;;;;;;;;;;;;;5071225;28;20322;-69
2021/08/18 16:35:14;;;;;;;;;;;;;;;;;;5067030;28;19909;-69
2021/08/18 16:37:40;;;;;;;;;;;;;;;;;;5068380;28;20439;-69